ADDS METAR Data INFO
IDs: Format: Raw Decoded Include TAF

Data at: 1948 UTC 17 Jan 2018

KCRW 171854Z 24005KT 9SM -SN OVC021 M11/M16 A3049 RMK AO2 SNB04 SLP343 P0000 T11111161
KCRW 171754Z 30005KT 9SM OVC020 M11/M17 A3050 RMK AO2 SNE27 SLP346 4/004 P0000 60000 T11111167 11111 21128 58006
KCRW 171654Z 36004KT 8SM -SN OVC019 M12/M17 A3052 RMK AO2 SLP353 P0000 T11171167
KCRW 171554Z 00000KT 7SM -SN OVC018 M12/M17 A3052 RMK AO2 SLP354 P0000 T11221167
KCRW 171454Z VRB04KT 7SM -SN OVC019 M12/M17 A3052 RMK AO2 SLP352 P0000 60000 T11221167 53005
KCRW 171354Z 32006KT 7SM -SN FEW000 OVC017 M13/M16 A3050 RMK AO2 SLP347 FG FEW000 P0000 T11281161
KCRW 171254Z 34006KT 6SM -SN OVC016 M13/M16 A3051 RMK AO2 SLP349 P0000 T11281161
KCRW 171154Z 00000KT 7SM -SN OVC018 M12/M16 A3050 RMK AO2 SLP346 4/005 P0000 60000 70014 T11221161 11111 21122 56000
KCRW 171054Z 33004KT 7SM -SN OVC017 M12/M16 A3050 RMK AO2 SLP347 P0000 T11221161
KCRW 170954Z 35005KT 9SM -SN OVC018 M12/M16 A3049 RMK AO2 SLP343 P0000 T11221161
KCRW 170854Z 33004KT 9SM -SN OVC020 M12/M16 A3050 RMK AO2 SLP346 P0000 60000 T11171161 51003
KCRW 170754Z VRB05KT 9SM -SN OVC020 M12/M16 A3050 RMK AO2 SLP344 FLURRIES P0000 T11171161
KCRW 170654Z 31007KT 9SM -SN OVC019 M12/M16 A3050 RMK AO2 SLP344 FLURRIES P0000 T11171161
KCRW 170554Z 32010KT 9SM -SN OVC019 M11/M15 A3049 RMK AO2 SLP341 4/005 P0000 60001 T11111150 11078 21111 58001
KCRW 170530Z 33008KT 280V010 9SM -SN OVC017 M11/M14 A3050 RMK AO2 P0000 T11061144
KCRW 170454Z 32008KT 9SM -SN OVC014 M11/M14 A3050 RMK AO2 SLP342 P0000 T11061139 400171106
KCRW 170354Z 32007KT 7SM -SN OVC014 M09/M13 A3051 RMK AO2 SLP344 P0000 T10941128
KCRW 170345Z 33007KT 8SM -SN OVC014 M09/M13 A3051 RMK AO2 P0000 T10941128
KCRW 170254Z 33007KT 2SM -SN BR SCT012 OVC017 M09/M12 A3050 RMK AO2 SLP340 P0000 60001 T10941117 53011
KCRW 170229Z 35006KT 2SM -SN SCT012 OVC017 M09/M12 A3049 RMK AO2 P0000 T10891117
KCRW 170154Z VRB04KT 6SM -SN SCT010 OVC016 M09/M12 A3048 RMK AO2 SLP336 P0000 T10891117
KCRW 170054Z 30003KT 2SM -SN BR BKN010 OVC024 M08/M11 A3047 RMK AO2 SLP331 P0001 T10831106
KCRW 170012Z 30004KT 2SM -SN BKN011 OVC026 M08/M11 A3047 RMK AO2 P0000 T10781106
KCRW 162354Z 00000KT 1SM -SN BR BKN013 OVC020 M08/M09 A3046 RMK AO2 SLP328 4/004 P0001 60007 T10781094 11044 21078 52017 RVRNO
KCRW 162254Z 32003KT 1SM -SN BR BKN013 OVC020 M08/M10 A3044 RMK AO2 SLP321 P0002 T10781100 RVRNO
KCRW 162154Z 31004KT 1SM -SN BKN013 OVC023 M07/M10 A3043 RMK AO2 SLP317 P0001 T10721100 RVRNO
KCRW 162054Z 33007KT 1SM -SN BKN013 OVC028 M07/M10 A3041 RMK AO2 SLP309 P0001 60003 T10721100 53007 RVRNO
KCRW 161954Z 34006KT 1SM -SN OVC012 M06/M09 A3039 RMK AO2 SLP303 SNINCR 1/2 P0001 T10611089 RVRNO